sensor_id;sensor_type;location;lat;lon;timestamp;temperature;humidity
57026;DHT22;43961;52.940;6.834;2023-01-31T00:01:25;3.40;99.90
57026;DHT22;43961;52.940;6.834;2023-01-31T00:03:56;3.30;99.90
57026;DHT22;43961;52.940;6.834;2023-01-31T00:06:24;3.30;99.90
57026;DHT22;43961;52.940;6.834;2023-01-31T00:08:50;3.30;99.90
57026;DHT22;43961;52.940;6.834;2023-01-31T00:11:19;3.30;99.90
57026;DHT22;43961;52.940;6.834;2023-01-31T00:13:45;3.20;99.90
57026;DHT22;43961;52.940;6.834;2023-01-31T00:16:13;3.20;99.90
57026;DHT22;43961;52.940;6.834;2023-01-31T00:18:40;3.20;99.90
57026;DHT22;43961;52.940;6.834;2023-01-31T00:21:07;3.20;99.90
57026;DHT22;43961;52.940;6.834;2023-01-31T00:23:34;3.20;99.90
57026;DHT22;43961;52.940;6.834;2023-01-31T00:28:40;3.20;99.90
57026;DHT22;43961;52.940;6.834;2023-01-31T00:31:07;3.10;99.90
57026;DHT22;43961;52.940;6.834;2023-01-31T00:33:37;3.10;99.90
57026;DHT22;43961;52.940;6.834;2023-01-31T00:36:08;3.10;99.90
57026;DHT22;43961;52.940;6.834;2023-01-31T00:38:34;3.00;99.90
57026;DHT22;43961;52.940;6.834;2023-01-31T00:41:00;3.00;99.90
57026;DHT22;43961;52.940;6.834;2023-01-31T00:43:26;3.00;99.90
57026;DHT22;43961;52.940;6.834;2023-01-31T00:45:51;2.90;99.90
57026;DHT22;43961;52.940;6.834;2023-01-31T00:48:17;2.90;99.90
57026;DHT22;43961;52.940;6.834;2023-01-31T00:50:43;2.90;99.90
57026;DHT22;43961;52.940;6.834;2023-01-31T00:53:09;2.90;99.90
57026;DHT22;43961;52.940;6.834;2023-01-31T00:55:34;2.90;99.90
57026;DHT22;43961;52.940;6.834;2023-01-31T00:58:00;2.90;99.90
57026;DHT22;43961;52.940;6.834;2023-01-31T01:00:26;2.80;99.90
57026;DHT22;43961;52.940;6.834;2023-01-31T01:02:51;2.80;99.90
57026;DHT22;43961;52.940;6.834;2023-01-31T01:05:17;2.80;99.90
57026;DHT22;43961;52.940;6.834;2023-01-31T01:07:43;2.80;99.90
57026;DHT22;43961;52.940;6.834;2023-01-31T01:10:09;2.70;99.90
57026;DHT22;43961;52.940;6.834;2023-01-31T01:12:35;2.70;99.90
57026;DHT22;43961;52.940;6.834;2023-01-31T01:15:00;2.60;99.90
57026;DHT22;43961;52.940;6.834;2023-01-31T01:17:26;2.60;99.90
57026;DHT22;43961;52.940;6.834;2023-01-31T01:19:52;2.60;99.90
57026;DHT22;43961;52.940;6.834;2023-01-31T01:22:18;2.60;99.90
57026;DHT22;43961;52.940;6.834;2023-01-31T01:24:44;2.60;99.90
57026;DHT22;43961;52.940;6.834;2023-01-31T01:27:11;2.50;99.90
57026;DHT22;43961;52.940;6.834;2023-01-31T01:29:38;2.60;99.90
57026;DHT22;43961;52.940;6.834;2023-01-31T01:32:05;2.50;99.90
57026;DHT22;43961;52.940;6.834;2023-01-31T01:34:32;2.50;99.90
57026;DHT22;43961;52.940;6.834;2023-01-31T01:36:58;2.40;99.90
57026;DHT22;43961;52.940;6.834;2023-01-31T01:39:24;2.40;99.90
57026;DHT22;43961;52.940;6.834;2023-01-31T01:41:50;2.40;99.90
57026;DHT22;43961;52.940;6.834;2023-01-31T01:49:54;2.40;99.90
57026;DHT22;43961;52.940;6.834;2023-01-31T01:52:22;2.30;99.90
57026;DHT22;43961;52.940;6.834;2023-01-31T01:54:59;2.30;99.90
57026;DHT22;43961;52.940;6.834;2023-01-31T01:57:31;2.30;99.90
57026;DHT22;43961;52.940;6.834;2023-01-31T02:00:14;2.30;99.90
57026;DHT22;43961;52.940;6.834;2023-01-31T02:02:43;2.30;99.90
57026;DHT22;43961;52.940;6.834;2023-01-31T02:05:13;2.30;99.90
57026;DHT22;43961;52.940;6.834;2023-01-31T02:07:40;2.20;99.90
57026;DHT22;43961;52.940;6.834;2023-01-31T02:12:38;2.30;99.90
57026;DHT22;43961;52.940;6.834;2023-01-31T02:15:04;2.30;99.90
57026;DHT22;43961;52.940;6.834;2023-01-31T02:17:30;2.30;99.90
57026;DHT22;43961;52.940;6.834;2023-01-31T02:20:09;2.30;99.90
57026;DHT22;43961;52.940;6.834;2023-01-31T02:25:46;2.30;99.90
57026;DHT22;43961;52.940;6.834;2023-01-31T02:34:04;2.30;99.90
57026;DHT22;43961;52.940;6.834;2023-01-31T02:36:59;2.30;99.90
57026;DHT22;43961;52.940;6.834;2023-01-31T02:39:45;2.40;99.90
57026;DHT22;43961;52.940;6.834;2023-01-31T02:45:08;2.40;99.90
57026;DHT22;43961;52.940;6.834;2023-01-31T02:50:40;2.50;99.90
57026;DHT22;43961;52.940;6.834;2023-01-31T02:53:27;2.60;99.90
57026;DHT22;43961;52.940;6.834;2023-01-31T02:56:04;2.60;99.90
57026;DHT22;43961;52.940;6.834;2023-01-31T02:59:15;2.60;99.90
57026;DHT22;43961;52.940;6.834;2023-01-31T03:01:47;2.70;99.90
57026;DHT22;43961;52.940;6.834;2023-01-31T03:04:14;2.60;99.90
57026;DHT22;43961;52.940;6.834;2023-01-31T03:06:51;2.70;99.90
57026;DHT22;43961;52.940;6.834;2023-01-31T03:15:22;2.80;99.90
57026;DHT22;43961;52.940;6.834;2023-01-31T03:17:47;2.80;99.90
57026;DHT22;43961;52.940;6.834;2023-01-31T03:20:37;2.80;99.90
57026;DHT22;43961;52.940;6.834;2023-01-31T03:23:15;2.80;99.90
57026;DHT22;43961;52.940;6.834;2023-01-31T03:25:43;2.80;99.90
57026;DHT22;43961;52.940;6.834;2023-01-31T03:28:15;2.80;99.90
57026;DHT22;43961;52.940;6.834;2023-01-31T03:30:47;2.80;99.90
57026;DHT22;43961;52.940;6.834;2023-01-31T03:33:20;2.90;99.90
57026;DHT22;43961;52.940;6.834;2023-01-31T03:35:54;2.90;99.90
57026;DHT22;43961;52.940;6.834;2023-01-31T03:38:29;3.00;99.90
57026;DHT22;43961;52.940;6.834;2023-01-31T03:43:43;3.00;99.90
57026;DHT22;43961;52.940;6.834;2023-01-31T03:46:15;3.00;99.90
57026;DHT22;43961;52.940;6.834;2023-01-31T03:48:45;3.00;99.90
57026;DHT22;43961;52.940;6.834;2023-01-31T03:51:18;3.10;99.90
57026;DHT22;43961;52.940;6.834;2023-01-31T03:53:48;3.10;99.90
57026;DHT22;43961;52.940;6.834;2023-01-31T03:56:55;3.10;99.90
57026;DHT22;43961;52.940;6.834;2023-01-31T03:59:25;3.10;99.90
57026;DHT22;43961;52.940;6.834;2023-01-31T04:01:55;3.10;99.90
57026;DHT22;43961;52.940;6.834;2023-01-31T04:04:27;3.20;99.90
57026;DHT22;43961;52.940;6.834;2023-01-31T04:06:54;3.20;99.90
57026;DHT22;43961;52.940;6.834;2023-01-31T04:09:20;3.20;99.90
57026;DHT22;43961;52.940;6.834;2023-01-31T04:11:50;3.30;99.90
57026;DHT22;43961;52.940;6.834;2023-01-31T04:14:16;3.30;99.90
57026;DHT22;43961;52.940;6.834;2023-01-31T04:16:43;3.30;99.90
57026;DHT22;43961;52.940;6.834;2023-01-31T04:19:08;3.30;99.90
57026;DHT22;43961;52.940;6.834;2023-01-31T04:21:34;3.30;99.90
57026;DHT22;43961;52.940;6.834;2023-01-31T04:24:00;3.40;99.90
57026;DHT22;43961;52.940;6.834;2023-01-31T04:26:25;3.40;99.90
57026;DHT22;43961;52.940;6.834;2023-01-31T04:28:51;3.40;99.90
57026;DHT22;43961;52.940;6.834;2023-01-31T04:31:17;3.40;99.90
57026;DHT22;43961;52.940;6.834;2023-01-31T04:33:42;3.50;99.90
57026;DHT22;43961;52.940;6.834;2023-01-31T04:36:08;3.50;99.90
57026;DHT22;43961;52.940;6.834;2023-01-31T04:38:35;3.60;99.90
57026;DHT22;43961;52.940;6.834;2023-01-31T04:41:01;3.70;99.90
57026;DHT22;43961;52.940;6.834;2023-01-31T04:43:26;3.70;99.90
57026;DHT22;43961;52.940;6.834;2023-01-31T04:45:52;3.70;99.90
57026;DHT22;43961;52.940;6.834;2023-01-31T04:48:18;3.80;99.90
57026;DHT22;43961;52.940;6.834;2023-01-31T04:50:44;3.70;99.90
57026;DHT22;43961;52.940;6.834;2023-01-31T04:53:09;3.80;99.90
57026;DHT22;43961;52.940;6.834;2023-01-31T04:55:35;3.80;99.90
57026;DHT22;43961;52.940;6.834;2023-01-31T04:58:01;3.90;99.90
57026;DHT22;43961;52.940;6.834;2023-01-31T05:00:27;3.90;99.90
57026;DHT22;43961;52.940;6.834;2023-01-31T05:02:52;4.00;99.90
57026;DHT22;43961;52.940;6.834;2023-01-31T05:05:18;3.90;99.90
57026;DHT22;43961;52.940;6.834;2023-01-31T05:07:45;4.00;99.90
57026;DHT22;43961;52.940;6.834;2023-01-31T05:10:11;4.00;99.90
57026;DHT22;43961;52.940;6.834;2023-01-31T05:12:37;4.00;99.90
57026;DHT22;43961;52.940;6.834;2023-01-31T05:15:04;4.00;99.90
57026;DHT22;43961;52.940;6.834;2023-01-31T05:17:32;4.10;99.90
57026;DHT22;43961;52.940;6.834;2023-01-31T05:19:58;4.00;99.90
57026;DHT22;43961;52.940;6.834;2023-01-31T05:22:25;4.10;99.90
57026;DHT22;43961;52.940;6.834;2023-01-31T05:24:51;4.10;99.90
57026;DHT22;43961;52.940;6.834;2023-01-31T05:27:17;4.10;99.90
57026;DHT22;43961;52.940;6.834;2023-01-31T05:29:43;4.10;99.90
57026;DHT22;43961;52.940;6.834;2023-01-31T05:32:10;4.10;99.90
57026;DHT22;43961;52.940;6.834;2023-01-31T05:34:36;4.20;99.90
57026;DHT22;43961;52.940;6.834;2023-01-31T05:37:02;4.10;99.90
57026;DHT22;43961;52.940;6.834;2023-01-31T05:39:28;4.20;99.90
57026;DHT22;43961;52.940;6.834;2023-01-31T05:41:55;4.20;99.90
57026;DHT22;43961;52.940;6.834;2023-01-31T05:44:21;4.20;99.90
57026;DHT22;43961;52.940;6.834;2023-01-31T05:46:47;4.20;99.90
57026;DHT22;43961;52.940;6.834;2023-01-31T05:49:13;4.30;99.90
57026;DHT22;43961;52.940;6.834;2023-01-31T05:51:39;4.30;99.90
57026;DHT22;43961;52.940;6.834;2023-01-31T05:54:05;4.30;99.90
57026;DHT22;43961;52.940;6.834;2023-01-31T05:56:31;4.40;99.90
57026;DHT22;43961;52.940;6.834;2023-01-31T05:58:56;4.40;99.90
57026;DHT22;43961;52.940;6.834;2023-01-31T06:01:24;4.40;99.90
57026;DHT22;43961;52.940;6.834;2023-01-31T06:03:50;4.40;99.90
57026;DHT22;43961;52.940;6.834;2023-01-31T06:06:16;4.40;99.90
57026;DHT22;43961;52.940;6.834;2023-01-31T06:08:42;4.40;99.90
57026;DHT22;43961;52.940;6.834;2023-01-31T06:11:09;4.50;99.90
57026;DHT22;43961;52.940;6.834;2023-01-31T06:13:36;4.50;99.90
57026;DHT22;43961;52.940;6.834;2023-01-31T06:16:02;4.60;99.90
57026;DHT22;43961;52.940;6.834;2023-01-31T06:18:28;4.60;99.90
57026;DHT22;43961;52.940;6.834;2023-01-31T06:20:54;4.60;99.90
57026;DHT22;43961;52.940;6.834;2023-01-31T06:23:20;4.60;99.90
57026;DHT22;43961;52.940;6.834;2023-01-31T06:25:50;4.60;99.90
57026;DHT22;43961;52.940;6.834;2023-01-31T06:28:18;4.60;99.90
57026;DHT22;43961;52.940;6.834;2023-01-31T06:30:44;4.70;99.90
57026;DHT22;43961;52.940;6.834;2023-01-31T06:33:10;4.70;99.90
57026;DHT22;43961;52.940;6.834;2023-01-31T06:35:37;4.70;99.90
57026;DHT22;43961;52.940;6.834;2023-01-31T06:38:03;4.70;99.90
57026;DHT22;43961;52.940;6.834;2023-01-31T06:40:29;4.70;99.90
57026;DHT22;43961;52.940;6.834;2023-01-31T06:42:56;4.70;99.90
57026;DHT22;43961;52.940;6.834;2023-01-31T06:45:21;4.70;99.90
57026;DHT22;43961;52.940;6.834;2023-01-31T06:47:47;4.70;99.90
57026;DHT22;43961;52.940;6.834;2023-01-31T06:50:12;4.70;99.90
57026;DHT22;43961;52.940;6.834;2023-01-31T06:52:39;4.70;99.90
57026;DHT22;43961;52.940;6.834;2023-01-31T06:55:05;4.70;99.90
57026;DHT22;43961;52.940;6.834;2023-01-31T06:57:31;4.80;99.90
57026;DHT22;43961;52.940;6.834;2023-01-31T06:59:56;4.80;99.90
57026;DHT22;43961;52.940;6.834;2023-01-31T07:02:22;4.80;99.90
57026;DHT22;43961;52.940;6.834;2023-01-31T07:04:47;4.80;99.90
57026;DHT22;43961;52.940;6.834;2023-01-31T07:07:13;4.80;99.90
57026;DHT22;43961;52.940;6.834;2023-01-31T07:09:39;4.80;99.90
57026;DHT22;43961;52.940;6.834;2023-01-31T07:12:04;4.90;99.90
57026;DHT22;43961;52.940;6.834;2023-01-31T07:14:30;4.90;99.90
57026;DHT22;43961;52.940;6.834;2023-01-31T07:16:56;4.90;99.90
57026;DHT22;43961;52.940;6.834;2023-01-31T07:19:21;4.90;99.90
57026;DHT22;43961;52.940;6.834;2023-01-31T07:21:47;4.90;99.90
57026;DHT22;43961;52.940;6.834;2023-01-31T07:24:14;4.90;99.90
57026;DHT22;43961;52.940;6.834;2023-01-31T07:26:40;5.00;99.90
57026;DHT22;43961;52.940;6.834;2023-01-31T07:29:07;5.00;99.90
57026;DHT22;43961;52.940;6.834;2023-01-31T07:31:33;5.00;99.90
57026;DHT22;43961;52.940;6.834;2023-01-31T07:33:59;5.00;99.90
57026;DHT22;43961;52.940;6.834;2023-01-31T07:36:25;5.10;99.90
57026;DHT22;43961;52.940;6.834;2023-01-31T07:38:55;5.10;99.90
57026;DHT22;43961;52.940;6.834;2023-01-31T07:41:22;5.10;99.90
57026;DHT22;43961;52.940;6.834;2023-01-31T07:43:48;5.10;99.90
57026;DHT22;43961;52.940;6.834;2023-01-31T07:46:14;5.10;99.90
57026;DHT22;43961;52.940;6.834;2023-01-31T07:48:40;5.10;99.90
57026;DHT22;43961;52.940;6.834;2023-01-31T07:51:06;5.10;99.90
57026;DHT22;43961;52.940;6.834;2023-01-31T07:53:34;5.20;99.90
57026;DHT22;43961;52.940;6.834;2023-01-31T07:58:37;5.30;99.90
57026;DHT22;43961;52.940;6.834;2023-01-31T08:01:03;5.30;99.90
57026;DHT22;43961;52.940;6.834;2023-01-31T08:03:47;5.30;99.90
57026;DHT22;43961;52.940;6.834;2023-01-31T08:06:13;5.30;99.90
57026;DHT22;43961;52.940;6.834;2023-01-31T08:08:40;5.30;99.90
57026;DHT22;43961;52.940;6.834;2023-01-31T08:11:07;5.40;99.90
57026;DHT22;43961;52.940;6.834;2023-01-31T08:13:33;5.40;99.90
57026;DHT22;43961;52.940;6.834;2023-01-31T08:16:04;5.40;99.90
57026;DHT22;43961;52.940;6.834;2023-01-31T08:18:30;5.40;99.90
57026;DHT22;43961;52.940;6.834;2023-01-31T08:20:56;5.40;99.90
57026;DHT22;43961;52.940;6.834;2023-01-31T08:23:22;5.50;99.90
57026;DHT22;43961;52.940;6.834;2023-01-31T08:25:48;5.50;99.90
57026;DHT22;43961;52.940;6.834;2023-01-31T08:28:15;5.50;99.90
57026;DHT22;43961;52.940;6.834;2023-01-31T08:30:42;5.50;99.90
57026;DHT22;43961;52.940;6.834;2023-01-31T08:33:09;5.60;99.90
57026;DHT22;43961;52.940;6.834;2023-01-31T08:35:36;5.60;99.90
57026;DHT22;43961;52.940;6.834;2023-01-31T08:38:02;5.70;99.90
57026;DHT22;43961;52.940;6.834;2023-01-31T08:40:28;5.70;99.90
57026;DHT22;43961;52.940;6.834;2023-01-31T08:42:58;5.70;99.90
57026;DHT22;43961;52.940;6.834;2023-01-31T08:45:27;5.70;99.90
57026;DHT22;43961;52.940;6.834;2023-01-31T08:47:54;5.80;99.90
57026;DHT22;43961;52.940;6.834;2023-01-31T08:50:21;5.80;99.90
57026;DHT22;43961;52.940;6.834;2023-01-31T08:52:52;5.80;99.90
57026;DHT22;43961;52.940;6.834;2023-01-31T08:55:18;5.80;99.90
57026;DHT22;43961;52.940;6.834;2023-01-31T08:57:43;5.80;99.90
57026;DHT22;43961;52.940;6.834;2023-01-31T09:00:11;5.90;99.90
57026;DHT22;43961;52.940;6.834;2023-01-31T09:02:36;5.90;99.90
57026;DHT22;43961;52.940;6.834;2023-01-31T09:05:02;5.90;99.90
57026;DHT22;43961;52.940;6.834;2023-01-31T09:07:28;5.90;99.90
57026;DHT22;43961;52.940;6.834;2023-01-31T09:09:53;5.90;99.90
57026;DHT22;43961;52.940;6.834;2023-01-31T09:12:19;5.90;99.90
57026;DHT22;43961;52.940;6.834;2023-01-31T09:14:45;6.00;99.90
57026;DHT22;43961;52.940;6.834;2023-01-31T09:17:10;6.00;99.90
57026;DHT22;43961;52.940;6.834;2023-01-31T09:19:37;6.00;99.90
57026;DHT22;43961;52.940;6.834;2023-01-31T09:22:02;6.00;99.90
57026;DHT22;43961;52.940;6.834;2023-01-31T09:24:28;6.00;99.90
57026;DHT22;43961;52.940;6.834;2023-01-31T09:26:54;6.00;99.90
57026;DHT22;43961;52.940;6.834;2023-01-31T09:29:21;6.10;99.90
57026;DHT22;43961;52.940;6.834;2023-01-31T09:31:50;6.10;99.90
57026;DHT22;43961;52.940;6.834;2023-01-31T09:34:16;6.10;99.90
57026;DHT22;43961;52.940;6.834;2023-01-31T09:36:42;6.10;99.90
57026;DHT22;43961;52.940;6.834;2023-01-31T09:39:10;6.10;99.90
57026;DHT22;43961;52.940;6.834;2023-01-31T09:41:57;6.20;99.90
57026;DHT22;43961;52.940;6.834;2023-01-31T09:44:31;6.20;99.90
57026;DHT22;43961;52.940;6.834;2023-01-31T09:49:32;6.20;99.90
57026;DHT22;43961;52.940;6.834;2023-01-31T09:52:03;6.20;99.90
57026;DHT22;43961;52.940;6.834;2023-01-31T09:54:34;6.20;99.90
57026;DHT22;43961;52.940;6.834;2023-01-31T09:57:09;6.30;99.90
57026;DHT22;43961;52.940;6.834;2023-01-31T10:06:02;6.40;99.90
57026;DHT22;43961;52.940;6.834;2023-01-31T10:11:15;6.50;99.90
57026;DHT22;43961;52.940;6.834;2023-01-31T10:13:53;6.50;99.90
57026;DHT22;43961;52.940;6.834;2023-01-31T10:19:05;6.60;99.90
57026;DHT22;43961;52.940;6.834;2023-01-31T10:21:37;6.50;99.90
57026;DHT22;43961;52.940;6.834;2023-01-31T10:24:33;6.60;99.90
57026;DHT22;43961;52.940;6.834;2023-01-31T10:27:04;6.60;99.90
57026;DHT22;43961;52.940;6.834;2023-01-31T10:29:42;6.60;99.90
57026;DHT22;43961;52.940;6.834;2023-01-31T10:32:31;6.60;99.90
57026;DHT22;43961;52.940;6.834;2023-01-31T10:35:18;6.60;99.90
57026;DHT22;43961;52.940;6.834;2023-01-31T10:37:52;6.70;99.90
57026;DHT22;43961;52.940;6.834;2023-01-31T10:40:31;6.60;99.90
57026;DHT22;43961;52.940;6.834;2023-01-31T10:43:07;6.70;99.90
57026;DHT22;43961;52.940;6.834;2023-01-31T10:45:36;6.70;99.90
57026;DHT22;43961;52.940;6.834;2023-01-31T10:48:22;6.70;99.90
57026;DHT22;43961;52.940;6.834;2023-01-31T10:56:34;6.70;99.90
57026;DHT22;43961;52.940;6.834;2023-01-31T10:59:11;6.80;99.90
57026;DHT22;43961;52.940;6.834;2023-01-31T11:01:38;6.80;99.90
57026;DHT22;43961;52.940;6.834;2023-01-31T11:04:24;6.70;99.90
57026;DHT22;43961;52.940;6.834;2023-01-31T11:06:50;6.70;99.90
57026;DHT22;43961;52.940;6.834;2023-01-31T11:09:17;6.70;99.90
57026;DHT22;43961;52.940;6.834;2023-01-31T11:11:58;6.70;99.90
57026;DHT22;43961;52.940;6.834;2023-01-31T11:14:24;6.80;99.90
57026;DHT22;43961;52.940;6.834;2023-01-31T11:16:56;6.70;99.90
57026;DHT22;43961;52.940;6.834;2023-01-31T11:19:36;6.70;99.90
57026;DHT22;43961;52.940;6.834;2023-01-31T11:22:03;6.70;99.90
57026;DHT22;43961;52.940;6.834;2023-01-31T11:24:32;6.80;99.90
57026;DHT22;43961;52.940;6.834;2023-01-31T11:27:02;6.80;99.90
57026;DHT22;43961;52.940;6.834;2023-01-31T11:29:40;6.80;99.90
57026;DHT22;43961;52.940;6.834;2023-01-31T11:32:24;6.80;99.90
57026;DHT22;43961;52.940;6.834;2023-01-31T11:35:24;6.80;99.90
57026;DHT22;43961;52.940;6.834;2023-01-31T11:38:18;6.80;99.90
57026;DHT22;43961;52.940;6.834;2023-01-31T11:40:47;6.80;99.90
57026;DHT22;43961;52.940;6.834;2023-01-31T11:45:43;6.90;99.90
57026;DHT22;43961;52.940;6.834;2023-01-31T11:48:17;6.90;99.90
57026;DHT22;43961;52.940;6.834;2023-01-31T11:50:49;6.90;99.90
57026;DHT22;43961;52.940;6.834;2023-01-31T11:53:19;6.90;99.90
57026;DHT22;43961;52.940;6.834;2023-01-31T11:55:48;6.90;99.90
57026;DHT22;43961;52.940;6.834;2023-01-31T11:58:35;6.90;99.90
57026;DHT22;43961;52.940;6.834;2023-01-31T12:03:37;6.90;99.90
57026;DHT22;43961;52.940;6.834;2023-01-31T12:06:08;6.90;99.90
57026;DHT22;43961;52.940;6.834;2023-01-31T12:08:37;7.00;99.90
57026;DHT22;43961;52.940;6.834;2023-01-31T12:11:26;6.90;99.90
57026;DHT22;43961;52.940;6.834;2023-01-31T12:14:16;7.00;99.90
57026;DHT22;43961;52.940;6.834;2023-01-31T12:16:44;7.00;99.90
57026;DHT22;43961;52.940;6.834;2023-01-31T12:24:42;7.10;99.90
57026;DHT22;43961;52.940;6.834;2023-01-31T12:27:58;7.10;99.90
57026;DHT22;43961;52.940;6.834;2023-01-31T12:35:56;7.20;99.90
57026;DHT22;43961;52.940;6.834;2023-01-31T12:39:08;7.20;99.90
57026;DHT22;43961;52.940;6.834;2023-01-31T12:41:45;7.30;99.90
57026;DHT22;43961;52.940;6.834;2023-01-31T12:44:36;7.40;99.90
57026;DHT22;43961;52.940;6.834;2023-01-31T13:01:28;7.60;99.90
57026;DHT22;43961;52.940;6.834;2023-01-31T13:07:06;7.60;99.90
57026;DHT22;43961;52.940;6.834;2023-01-31T13:09:35;7.70;99.90
57026;DHT22;43961;52.940;6.834;2023-01-31T13:12:11;7.70;99.90
57026;DHT22;43961;52.940;6.834;2023-01-31T13:17:31;7.80;99.90
57026;DHT22;43961;52.940;6.834;2023-01-31T13:22:59;7.80;99.90
57026;DHT22;43961;52.940;6.834;2023-01-31T13:30:49;7.90;99.90
57026;DHT22;43961;52.940;6.834;2023-01-31T13:35:56;8.00;99.90
57026;DHT22;43961;52.940;6.834;2023-01-31T13:38:29;8.00;99.90
57026;DHT22;43961;52.940;6.834;2023-01-31T13:40:59;8.00;99.90
57026;DHT22;43961;52.940;6.834;2023-01-31T13:43:25;8.10;99.90
57026;DHT22;43961;52.940;6.834;2023-01-31T13:45:59;8.10;99.90
57026;DHT22;43961;52.940;6.834;2023-01-31T13:48:37;8.10;99.90
57026;DHT22;43961;52.940;6.834;2023-01-31T13:53:47;8.10;99.90
57026;DHT22;43961;52.940;6.834;2023-01-31T13:56:21;8.10;99.90
57026;DHT22;43961;52.940;6.834;2023-01-31T13:58:48;8.20;99.90
57026;DHT22;43961;52.940;6.834;2023-01-31T14:01:18;8.20;99.90
57026;DHT22;43961;52.940;6.834;2023-01-31T14:14:47;8.10;99.90
57026;DHT22;43961;52.940;6.834;2023-01-31T14:20:02;8.10;99.90
57026;DHT22;43961;52.940;6.834;2023-01-31T14:22:32;8.10;99.90
57026;DHT22;43961;52.940;6.834;2023-01-31T14:25:04;8.10;99.90
57026;DHT22;43961;52.940;6.834;2023-01-31T14:32:37;8.10;99.90
57026;DHT22;43961;52.940;6.834;2023-01-31T14:35:21;8.10;99.90
57026;DHT22;43961;52.940;6.834;2023-01-31T14:43:13;8.10;99.90
57026;DHT22;43961;52.940;6.834;2023-01-31T14:56:32;8.20;99.90
57026;DHT22;43961;52.940;6.834;2023-01-31T14:59:04;8.20;99.90
57026;DHT22;43961;52.940;6.834;2023-01-31T15:01:46;8.30;99.90
57026;DHT22;43961;52.940;6.834;2023-01-31T15:04:20;8.30;99.90
57026;DHT22;43961;52.940;6.834;2023-01-31T15:06:49;8.30;99.90
57026;DHT22;43961;52.940;6.834;2023-01-31T15:11:48;8.30;99.90
57026;DHT22;43961;52.940;6.834;2023-01-31T15:14:35;8.30;99.90
57026;DHT22;43961;52.940;6.834;2023-01-31T15:19:33;8.30;99.90
57026;DHT22;43961;52.940;6.834;2023-01-31T15:22:07;8.30;99.90
57026;DHT22;43961;52.940;6.834;2023-01-31T15:24:49;8.30;99.90
57026;DHT22;43961;52.940;6.834;2023-01-31T15:27:27;8.30;99.90
57026;DHT22;43961;52.940;6.834;2023-01-31T15:30:06;8.30;99.90
57026;DHT22;43961;52.940;6.834;2023-01-31T15:35:13;8.20;99.90
57026;DHT22;43961;52.940;6.834;2023-01-31T15:37:40;8.20;99.90
57026;DHT22;43961;52.940;6.834;2023-01-31T15:40:19;8.10;99.90
57026;DHT22;43961;52.940;6.834;2023-01-31T15:42:45;8.10;99.90
57026;DHT22;43961;52.940;6.834;2023-01-31T15:45:20;8.00;99.90
57026;DHT22;43961;52.940;6.834;2023-01-31T15:50:24;8.00;99.90
57026;DHT22;43961;52.940;6.834;2023-01-31T15:52:50;7.90;99.90
57026;DHT22;43961;52.940;6.834;2023-01-31T15:55:17;7.90;99.90
57026;DHT22;43961;52.940;6.834;2023-01-31T15:57:52;7.90;99.90
57026;DHT22;43961;52.940;6.834;2023-01-31T16:00:31;7.80;99.90
57026;DHT22;43961;52.940;6.834;2023-01-31T16:02:57;7.80;99.90
57026;DHT22;43961;52.940;6.834;2023-01-31T16:05:34;7.70;99.90
57026;DHT22;43961;52.940;6.834;2023-01-31T16:08:14;7.70;99.90
57026;DHT22;43961;52.940;6.834;2023-01-31T16:10:42;7.70;99.90
57026;DHT22;43961;52.940;6.834;2023-01-31T16:13:10;7.70;99.90
57026;DHT22;43961;52.940;6.834;2023-01-31T16:15:36;7.70;99.90
57026;DHT22;43961;52.940;6.834;2023-01-31T16:18:03;7.60;99.90
57026;DHT22;43961;52.940;6.834;2023-01-31T16:22:58;7.60;99.90
57026;DHT22;43961;52.940;6.834;2023-01-31T16:25:23;7.60;99.90
57026;DHT22;43961;52.940;6.834;2023-01-31T16:27:49;7.50;99.90
57026;DHT22;43961;52.940;6.834;2023-01-31T16:30:16;7.50;99.90
57026;DHT22;43961;52.940;6.834;2023-01-31T16:32:43;7.40;99.90
57026;DHT22;43961;52.940;6.834;2023-01-31T16:35:23;7.30;99.90
57026;DHT22;43961;52.940;6.834;2023-01-31T16:38:19;7.30;99.90
57026;DHT22;43961;52.940;6.834;2023-01-31T16:40:52;7.20;99.90
57026;DHT22;43961;52.940;6.834;2023-01-31T16:43:24;7.20;99.90
57026;DHT22;43961;52.940;6.834;2023-01-31T16:45:57;7.10;99.90
57026;DHT22;43961;52.940;6.834;2023-01-31T16:48:32;7.10;99.90
57026;DHT22;43961;52.940;6.834;2023-01-31T16:51:00;7.00;99.90
57026;DHT22;43961;52.940;6.834;2023-01-31T16:53:45;6.90;99.90
57026;DHT22;43961;52.940;6.834;2023-01-31T16:58:48;6.90;99.90
57026;DHT22;43961;52.940;6.834;2023-01-31T17:01:26;6.80;99.90
57026;DHT22;43961;52.940;6.834;2023-01-31T17:04:04;6.80;99.90
57026;DHT22;43961;52.940;6.834;2023-01-31T17:06:31;6.80;99.90
57026;DHT22;43961;52.940;6.834;2023-01-31T17:08:57;6.70;99.90
57026;DHT22;43961;52.940;6.834;2023-01-31T17:11:23;6.70;99.90
57026;DHT22;43961;52.940;6.834;2023-01-31T17:13:49;6.60;99.90
57026;DHT22;43961;52.940;6.834;2023-01-31T17:16:19;6.60;99.90
57026;DHT22;43961;52.940;6.834;2023-01-31T17:18:50;6.60;99.90
57026;DHT22;43961;52.940;6.834;2023-01-31T17:21:16;6.50;99.90
57026;DHT22;43961;52.940;6.834;2023-01-31T17:23:42;6.50;99.90
57026;DHT22;43961;52.940;6.834;2023-01-31T17:26:19;6.50;99.90
57026;DHT22;43961;52.940;6.834;2023-01-31T17:28:45;6.50;99.90
57026;DHT22;43961;52.940;6.834;2023-01-31T17:31:22;6.40;99.90
57026;DHT22;43961;52.940;6.834;2023-01-31T17:33:51;6.40;99.90
57026;DHT22;43961;52.940;6.834;2023-01-31T17:36:17;6.40;99.90
57026;DHT22;43961;52.940;6.834;2023-01-31T17:38:43;6.40;99.90
57026;DHT22;43961;52.940;6.834;2023-01-31T17:41:15;6.30;99.90
57026;DHT22;43961;52.940;6.834;2023-01-31T17:43:41;6.30;99.90
57026;DHT22;43961;52.940;6.834;2023-01-31T17:46:11;6.20;99.90
57026;DHT22;43961;52.940;6.834;2023-01-31T17:48:37;6.20;99.90
57026;DHT22;43961;52.940;6.834;2023-01-31T17:51:04;6.20;99.90
57026;DHT22;43961;52.940;6.834;2023-01-31T17:53:31;6.20;99.90
57026;DHT22;43961;52.940;6.834;2023-01-31T17:55:57;6.10;99.90
57026;DHT22;43961;52.940;6.834;2023-01-31T17:58:23;6.10;99.90
57026;DHT22;43961;52.940;6.834;2023-01-31T18:00:49;6.10;99.90
57026;DHT22;43961;52.940;6.834;2023-01-31T18:03:20;6.00;99.90
57026;DHT22;43961;52.940;6.834;2023-01-31T18:05:46;6.00;99.90
57026;DHT22;43961;52.940;6.834;2023-01-31T18:08:13;6.00;99.90
57026;DHT22;43961;52.940;6.834;2023-01-31T18:10:39;5.90;99.90
57026;DHT22;43961;52.940;6.834;2023-01-31T18:13:06;5.90;99.90
57026;DHT22;43961;52.940;6.834;2023-01-31T18:15:32;5.90;99.90
57026;DHT22;43961;52.940;6.834;2023-01-31T18:17:58;5.90;99.90
57026;DHT22;43961;52.940;6.834;2023-01-31T18:20:24;5.90;99.90
57026;DHT22;43961;52.940;6.834;2023-01-31T18:22:49;5.80;99.90
57026;DHT22;43961;52.940;6.834;2023-01-31T18:25:15;5.80;99.90
57026;DHT22;43961;52.940;6.834;2023-01-31T18:27:41;5.80;99.90
57026;DHT22;43961;52.940;6.834;2023-01-31T18:30:07;5.80;99.90
57026;DHT22;43961;52.940;6.834;2023-01-31T18:32:33;5.80;99.90
57026;DHT22;43961;52.940;6.834;2023-01-31T18:34:59;5.70;99.90
57026;DHT22;43961;52.940;6.834;2023-01-31T18:37:25;5.80;99.90
57026;DHT22;43961;52.940;6.834;2023-01-31T18:39:52;5.80;99.90